createdAt,value
2018-08-09T00:00:02.961Z,101437.05
2018-08-09T00:02:31.033Z,101430.61
2018-08-09T00:04:59.096Z,101434.09
2018-08-09T00:07:27.182Z,101435.33
2018-08-09T00:09:55.239Z,101441.39
2018-08-09T00:12:23.316Z,101436.58
2018-08-09T00:14:51.372Z,101437.43
2018-08-09T00:17:19.440Z,101436.83
2018-08-09T00:19:47.481Z,101439.83
2018-08-09T00:22:15.556Z,101440.81
2018-08-09T00:24:43.640Z,101441.61
2018-08-09T00:27:11.711Z,101434.33
2018-08-09T00:29:39.748Z,101434.33
2018-08-09T00:32:07.796Z,101433.33
2018-08-09T00:34:35.847Z,101434.15
2018-08-09T00:37:03.900Z,101433.91
2018-08-09T00:39:31.956Z,101432.71
2018-08-09T00:42:00.021Z,101436.97
2018-08-09T00:44:28.079Z,101433.19
2018-08-09T00:46:56.144Z,101432.38
2018-08-09T00:49:24.201Z,101436.84
2018-08-09T00:51:52.296Z,101435.42
2018-08-09T00:54:20.347Z,101432.63
2018-08-09T00:56:48.400Z,101439.88
2018-08-09T00:59:16.444Z,101434.06
2018-08-09T01:01:44.501Z,101435.45
2018-08-09T01:04:12.544Z,101437.08
2018-08-09T01:06:40.623Z,101440.51
2018-08-09T01:09:09.510Z,101441.13
2018-08-09T01:11:38.516Z,101431.67
2018-08-09T01:14:06.609Z,101442.73
2018-08-09T01:16:34.673Z,101445.16
2018-08-09T01:19:02.704Z,101446.58
2018-08-09T01:21:30.750Z,101444.15
2018-08-09T01:23:58.813Z,101438.11
2018-08-09T01:26:26.860Z,101438.51
2018-08-09T01:28:54.932Z,101431.24
2018-08-09T01:31:33.417Z,101424.98
2018-08-09T01:34:02.431Z,101426.61
2018-08-09T01:36:30.591Z,101425.60
2018-08-09T01:38:58.784Z,101425.80
2018-08-09T01:41:27.052Z,101430.23
2018-08-09T01:43:58.284Z,101431.25
2018-08-09T01:46:26.750Z,101424.59
2018-08-09T01:48:55.424Z,101425.39
2018-08-09T01:51:23.714Z,101430.62
2018-08-09T01:53:52.389Z,101430.81
2018-08-09T01:56:20.443Z,101431.83
2018-08-09T01:58:49.148Z,101435.88
2018-08-09T02:01:17.425Z,101436.67
2018-08-09T02:03:45.800Z,101447.16
2018-08-09T02:06:14.900Z,101444.77
2018-08-09T02:08:43.004Z,101449.21
2018-08-09T02:11:17.852Z,101449.02
2018-08-09T02:13:45.884Z,101451.83
2018-08-09T02:16:13.956Z,101448.20
2018-08-09T02:18:42.028Z,101450.41
2018-08-09T02:21:10.784Z,101443.18
2018-08-09T02:23:38.841Z,101437.54
2018-08-09T02:26:06.897Z,101440.97
2018-08-09T02:28:34.958Z,101442.36
2018-08-09T02:31:03.012Z,101436.13
2018-08-09T02:33:31.073Z,101439.73
2018-08-09T02:35:59.124Z,101443.12
2018-08-09T02:38:27.196Z,101438.89
2018-08-09T02:40:55.258Z,101445.34
2018-08-09T02:43:23.324Z,101441.72
2018-08-09T02:45:51.363Z,101444.32
2018-08-09T02:48:19.458Z,101445.54
2018-08-09T02:50:47.509Z,101444.13
2018-08-09T02:53:15.611Z,101444.17
2018-08-09T02:55:43.667Z,101444.98
2018-08-09T02:58:11.716Z,101454.05
2018-08-09T03:00:39.791Z,101449.00
2018-08-09T03:03:07.857Z,101454.05
2018-08-09T03:05:35.913Z,101453.02
2018-08-09T03:08:03.977Z,101460.70
2018-08-09T03:10:32.016Z,101456.06
2018-08-09T03:13:00.080Z,101454.66
2018-08-09T03:15:28.139Z,101454.44
2018-08-09T03:17:56.187Z,101465.13
2018-08-09T03:20:24.226Z,101468.71
2018-08-09T03:22:52.270Z,101474.55
2018-08-09T03:25:20.317Z,101473.30
2018-08-09T03:27:48.391Z,101471.70
2018-08-09T03:30:16.443Z,101477.11
2018-08-09T03:32:44.500Z,101475.30
2018-08-09T03:35:12.524Z,101468.06
2018-08-09T03:37:40.580Z,101471.48
2018-08-09T03:40:08.620Z,101465.95
2018-08-09T03:42:36.688Z,101479.20
2018-08-09T03:45:05.092Z,101476.12
2018-08-09T03:47:33.143Z,101471.85
2018-08-09T03:50:01.192Z,101472.48
2018-08-09T03:52:29.243Z,101473.89
2018-08-09T03:54:57.308Z,101473.53
2018-08-09T03:57:25.347Z,101485.03
2018-08-09T03:59:53.409Z,101482.39
2018-08-09T04:02:21.453Z,101484.27
2018-08-09T04:04:49.509Z,101480.56
2018-08-09T04:07:17.563Z,101482.95
2018-08-09T04:09:45.639Z,101469.89
2018-08-09T04:12:13.692Z,101463.84
2018-08-09T04:14:41.784Z,101453.00
2018-08-09T04:17:17.239Z,101455.45
2018-08-09T04:19:45.411Z,101455.13
2018-08-09T04:22:13.452Z,101452.81
2018-08-09T04:24:41.529Z,101455.67
2018-08-09T04:27:09.577Z,101452.22
2018-08-09T04:29:37.621Z,101450.41
2018-08-09T04:32:05.660Z,101460.31
2018-08-09T04:34:33.728Z,101467.17
2018-08-09T04:37:01.793Z,101476.26
2018-08-09T04:39:29.868Z,101471.41
2018-08-09T04:41:57.924Z,101462.77
2018-08-09T04:44:25.980Z,101464.36
2018-08-09T04:46:54.025Z,101463.53
2018-08-09T04:49:22.140Z,101454.63
2018-08-09T04:51:50.128Z,101458.67
2018-08-09T04:54:18.213Z,101460.30
2018-08-09T04:56:46.284Z,101457.44
2018-08-09T04:59:14.349Z,101473.12
2018-08-09T05:01:42.380Z,101472.16
2018-08-09T05:04:10.520Z,101470.77
2018-08-09T05:06:38.583Z,101475.34
2018-08-09T05:09:08.472Z,101465.90
2018-08-09T05:11:36.568Z,101472.20
2018-08-09T05:14:04.644Z,101467.22
2018-08-09T05:16:32.728Z,101467.45
2018-08-09T05:19:00.852Z,101475.52
2018-08-09T05:21:28.953Z,101481.03
2018-08-09T05:23:57.024Z,101473.95
2018-08-09T05:26:25.126Z,101469.26
2018-08-09T05:28:53.180Z,101473.28
2018-08-09T05:31:21.321Z,101472.04
2018-08-09T05:33:49.386Z,101468.84
2018-08-09T05:36:17.450Z,101471.70
2018-08-09T05:38:45.579Z,101464.91
2018-08-09T05:41:13.681Z,101470.58
2018-08-09T05:43:41.784Z,101464.81
2018-08-09T05:46:09.836Z,101460.63
2018-08-09T05:48:37.889Z,101462.70
2018-08-09T05:51:06.068Z,101466.56
2018-08-09T05:53:34.131Z,101466.81
2018-08-09T05:56:02.213Z,101471.47
2018-08-09T05:58:30.303Z,101468.73
2018-08-09T06:00:58.364Z,101474.25
2018-08-09T06:03:26.428Z,101476.33
2018-08-09T06:05:54.513Z,101477.58
2018-08-09T06:08:22.584Z,101471.00
2018-08-09T06:10:50.648Z,101475.06
2018-08-09T06:13:18.747Z,101478.50
2018-08-09T06:15:46.820Z,101486.00
2018-08-09T06:18:14.916Z,101489.06
2018-08-09T06:20:43.004Z,101486.31
2018-08-09T06:23:11.102Z,101482.52
2018-08-09T06:25:39.350Z,101486.61
2018-08-09T06:28:07.407Z,101494.92
2018-08-09T06:30:35.476Z,101495.94
2018-08-09T06:33:03.557Z,101495.16
2018-08-09T06:35:31.628Z,101499.02
2018-08-09T06:37:59.670Z,101500.03
2018-08-09T06:40:27.744Z,101493.02
2018-08-09T06:42:55.793Z,101488.42
2018-08-09T06:45:23.836Z,101481.61
2018-08-09T06:47:51.888Z,101487.87
2018-08-09T06:50:19.941Z,101495.13
2018-08-09T06:52:47.993Z,101497.15
2018-08-09T06:55:16.049Z,101507.84
2018-08-09T06:57:44.088Z,101508.86
2018-08-09T07:00:13.249Z,101499.17
2018-08-09T07:02:41.476Z,101503.00
2018-08-09T07:05:09.533Z,101491.50
2018-08-09T07:07:37.959Z,101489.30
2018-08-09T07:10:06.657Z,101489.70
2018-08-09T07:12:34.720Z,101495.74
2018-08-09T07:15:02.772Z,101500.98
2018-08-09T07:17:30.823Z,101484.83
2018-08-09T07:19:58.900Z,101490.82
2018-08-09T07:22:26.948Z,101495.80
2018-08-09T07:24:55.008Z,101502.06
2018-08-09T07:27:23.077Z,101500.04
2018-08-09T07:29:51.152Z,101503.28
2018-08-09T07:32:19.205Z,101497.42
2018-08-09T07:34:47.260Z,101490.34
2018-08-09T07:37:15.340Z,101493.16
2018-08-09T07:39:43.475Z,101487.98
2018-08-09T07:42:11.491Z,101481.80
2018-08-09T07:44:39.544Z,101481.02
2018-08-09T07:47:07.665Z,101469.50
2018-08-09T07:49:35.712Z,101467.48
2018-08-09T07:52:03.820Z,101466.76
2018-08-09T07:54:31.891Z,101471.25
2018-08-09T07:56:59.961Z,101468.23
2018-08-09T07:59:27.995Z,101464.47
2018-08-09T08:01:56.065Z,101464.47
2018-08-09T08:04:24.139Z,101461.48
2018-08-09T08:06:52.189Z,101451.96
2018-08-09T08:09:20.222Z,101452.92
2018-08-09T08:11:48.312Z,101449.36
2018-08-09T08:14:16.352Z,101453.59
2018-08-09T08:16:44.457Z,101441.58
2018-08-09T08:19:12.524Z,101433.55
2018-08-09T08:21:40.607Z,101443.72
2018-08-09T08:24:08.652Z,101438.19
2018-08-09T08:26:36.798Z,101440.55
2018-08-09T08:29:04.836Z,101444.25
2018-08-09T08:31:32.945Z,101442.02
2018-08-09T08:34:01.041Z,101434.59
2018-08-09T08:36:29.089Z,101431.28
2018-08-09T08:38:57.119Z,101430.65
2018-08-09T08:41:25.188Z,101428.02
2018-08-09T08:43:53.203Z,101419.38
2018-08-09T08:46:21.284Z,101414.27
2018-08-09T08:48:49.316Z,101409.90
2018-08-09T08:51:17.361Z,101413.61
2018-08-09T08:53:45.385Z,101404.02
2018-08-09T08:56:13.463Z,101396.09
2018-08-09T08:58:41.538Z,101399.75
2018-08-09T09:01:09.661Z,101407.16
2018-08-09T09:03:37.756Z,101397.52
2018-08-09T09:06:05.844Z,101396.42
2018-08-09T09:08:33.917Z,101398.77
2018-08-09T09:11:01.992Z,101392.04
2018-08-09T09:13:30.054Z,101384.62
2018-08-09T09:15:58.097Z,101394.84
2018-08-09T09:18:26.193Z,101394.91
2018-08-09T09:20:54.238Z,101399.17
2018-08-09T09:23:22.293Z,101400.08
2018-08-09T09:25:50.337Z,101405.73
2018-08-09T09:28:18.436Z,101407.83
2018-08-09T09:30:46.508Z,101411.55
2018-08-09T09:33:14.548Z,101411.50
2018-08-09T09:35:42.601Z,101394.92
2018-08-09T09:38:10.666Z,101393.95
2018-08-09T09:40:38.724Z,101387.73
2018-08-09T09:43:06.819Z,101381.03
2018-08-09T09:45:34.862Z,101383.14
2018-08-09T09:48:02.916Z,101371.33
2018-08-09T09:50:30.956Z,101364.66
2018-08-09T09:52:59.005Z,101358.81
2018-08-09T09:55:27.051Z,101354.16
2018-08-09T09:57:55.119Z,101353.07
2018-08-09T10:00:28.105Z,101358.94
2018-08-09T10:02:56.192Z,101359.92
2018-08-09T10:05:24.240Z,101346.84
2018-08-09T10:07:52.413Z,101346.61
2018-08-09T10:10:20.519Z,101342.80
2018-08-09T10:12:48.575Z,101341.38
2018-08-09T10:15:16.616Z,101333.09
2018-08-09T10:17:44.697Z,101337.28
2018-08-09T10:20:12.756Z,101336.09
2018-08-09T10:22:40.830Z,101336.14
2018-08-09T10:25:08.905Z,101334.73
2018-08-09T10:27:37.165Z,101326.57
2018-08-09T10:30:06.153Z,101320.63
2018-08-09T10:32:34.236Z,101312.28
2018-08-09T10:35:02.293Z,101309.23
2018-08-09T10:37:30.372Z,101308.61
2018-08-09T10:39:58.450Z,101296.12
2018-08-09T10:42:26.511Z,101302.04
2018-08-09T10:44:54.582Z,101296.14
2018-08-09T10:47:22.665Z,101298.83
2018-08-09T10:49:50.708Z,101296.48
2018-08-09T10:52:18.767Z,101297.96
2018-08-09T10:54:46.872Z,101294.14
2018-08-09T10:57:14.948Z,101288.27
2018-08-09T10:59:43.033Z,101291.55
2018-08-09T11:02:11.088Z,101283.41
2018-08-09T11:04:39.154Z,101290.50
2018-08-09T11:07:07.325Z,101285.41
2018-08-09T11:09:35.396Z,101277.75
2018-08-09T11:12:03.512Z,101270.87
2018-08-09T11:14:31.636Z,101264.11
2018-08-09T11:16:59.732Z,101261.06
2018-08-09T11:19:27.728Z,101253.00
2018-08-09T11:21:55.837Z,101250.02
2018-08-09T11:24:23.882Z,101250.41
2018-08-09T11:26:51.924Z,101250.53
2018-08-09T11:29:19.980Z,101239.80
2018-08-09T11:31:48.028Z,101241.95
2018-08-09T11:34:16.081Z,101221.84
2018-08-09T11:36:44.143Z,101213.46
2018-08-09T11:39:12.838Z,101206.91
2018-08-09T11:41:40.882Z,101198.64
2018-08-09T11:44:09.901Z,101201.61
2018-08-09T11:46:37.939Z,101201.48
2018-08-09T11:49:06.079Z,101180.70
2018-08-09T11:51:34.113Z,101174.28
2018-08-09T11:54:02.201Z,101163.72
2018-08-09T11:56:30.290Z,101150.33
2018-08-09T11:58:58.307Z,101131.59
2018-08-09T12:01:26.361Z,101132.08
2018-08-09T12:03:54.512Z,101123.84
2018-08-09T12:06:22.571Z,101121.42
2018-08-09T12:08:50.620Z,101133.35
2018-08-09T12:11:18.670Z,101122.57
2018-08-09T12:13:46.743Z,101117.80
2018-08-09T12:16:14.804Z,101116.59
2018-08-09T12:18:42.902Z,101128.34
2018-08-09T12:21:10.997Z,101126.17
2018-08-09T12:23:39.097Z,101125.64
2018-08-09T12:26:07.151Z,101130.13
2018-08-09T12:28:35.212Z,101122.59
2018-08-09T12:31:03.288Z,101116.64
2018-08-09T12:33:31.421Z,101116.68
2018-08-09T12:35:59.519Z,101116.27
2018-08-09T12:38:27.604Z,101105.70
2018-08-09T12:40:55.657Z,101101.70
2018-08-09T12:43:23.735Z,101102.55
2018-08-09T12:45:51.806Z,101094.50
2018-08-09T12:48:19.883Z,101090.41
2018-08-09T12:50:48.000Z,101084.67
2018-08-09T12:53:16.003Z,101083.29
2018-08-09T12:55:44.096Z,101080.81
2018-08-09T12:58:12.160Z,101068.16
2018-08-09T13:00:40.286Z,101065.66
2018-08-09T13:03:08.604Z,101057.40
2018-08-09T13:05:36.675Z,101054.04
2018-08-09T13:08:04.821Z,101059.58
2018-08-09T13:10:32.892Z,101041.77
2018-08-09T13:13:00.957Z,101025.89
2018-08-09T13:15:29.031Z,101016.84
2018-08-09T13:17:57.103Z,101008.93
2018-08-09T13:20:25.192Z,101000.03
2018-08-09T13:22:53.261Z,101002.38
2018-08-09T13:25:21.337Z,100996.67
2018-08-09T13:27:49.455Z,100991.09
2018-08-09T13:30:17.549Z,100984.71
2018-08-09T13:32:45.799Z,100988.52
2018-08-09T13:35:13.871Z,100977.23
2018-08-09T13:37:42.000Z,100977.24
2018-08-09T13:40:10.837Z,100974.39
2018-08-09T13:42:39.824Z,100975.78
2018-08-09T13:45:12.188Z,100971.30
2018-08-09T13:47:40.566Z,100966.88
2018-08-09T13:50:09.150Z,100958.45
2018-08-09T13:52:37.354Z,100952.27
2018-08-09T13:55:05.688Z,100946.41
2018-08-09T13:57:33.731Z,100943.22
2018-08-09T14:00:01.800Z,100929.58
2018-08-09T14:02:30.105Z,100924.52
2018-08-09T14:04:58.167Z,100917.84
2018-08-09T14:07:26.425Z,100904.87
2018-08-09T14:09:54.508Z,100890.59
2018-08-09T14:12:22.608Z,100885.00
2018-08-09T14:14:50.696Z,100874.74
2018-08-09T14:17:18.758Z,100874.06
2018-08-09T14:19:46.836Z,100865.07
2018-08-09T14:22:14.884Z,100872.35
2018-08-09T14:24:43.034Z,100863.25
2018-08-09T14:27:11.021Z,100850.28
2018-08-09T14:29:39.075Z,100844.42
2018-08-09T14:32:07.140Z,100829.90
2018-08-09T14:34:35.231Z,100833.58
2018-08-09T14:37:03.303Z,100815.39
2018-08-09T14:39:31.366Z,100810.42
2018-08-09T14:41:59.493Z,100802.41
2018-08-09T14:44:27.520Z,100796.22
2018-08-09T14:46:55.593Z,100793.22
2018-08-09T14:49:23.635Z,100782.45
2018-08-09T14:51:51.736Z,100779.75
2018-08-09T14:54:19.791Z,100769.34
2018-08-09T14:56:47.872Z,100763.11
2018-08-09T14:59:15.981Z,100759.05
2018-08-09T15:01:44.056Z,100750.38
2018-08-09T15:04:12.104Z,100739.41
2018-08-09T15:06:40.183Z,100727.15
2018-08-09T15:09:10.139Z,100725.37
2018-08-09T15:11:38.203Z,100728.08
2018-08-09T15:14:07.003Z,100722.09
2018-08-09T15:16:35.085Z,100723.95
2018-08-09T15:19:03.177Z,100719.50
2018-08-09T15:21:31.225Z,100705.70
2018-08-09T15:23:59.291Z,100697.84
2018-08-09T15:26:27.365Z,100699.38
2018-08-09T15:28:55.404Z,100697.06
2018-08-09T15:31:23.469Z,100694.67
2018-08-09T15:33:51.517Z,100686.91
2018-08-09T15:36:19.567Z,100678.42
2018-08-09T15:38:47.640Z,100678.03
2018-08-09T15:41:15.873Z,100674.00
2018-08-09T15:43:43.933Z,100670.58
2018-08-09T15:46:11.975Z,100659.23
2018-08-09T15:48:40.024Z,100653.76
2018-08-09T15:51:08.085Z,100652.45
2018-08-09T15:53:36.129Z,100637.39
2018-08-09T15:56:04.193Z,100633.78
2018-08-09T15:58:32.264Z,100621.92
2018-08-09T16:01:00.321Z,100620.63
2018-08-09T16:03:28.414Z,100611.91
2018-08-09T16:05:56.511Z,100606.73
2018-08-09T16:08:24.613Z,100602.22
2018-08-09T16:10:52.700Z,100592.53
2018-08-09T16:13:20.933Z,100581.27
2018-08-09T16:15:48.993Z,100573.98
2018-08-09T16:18:17.054Z,100564.77
2018-08-09T16:20:45.109Z,100558.44
2018-08-09T16:23:13.191Z,100567.20
2018-08-09T16:25:42.068Z,100566.27
2018-08-09T16:28:10.141Z,100551.66
2018-08-09T16:30:38.196Z,100546.91
2018-08-09T16:33:06.688Z,100539.61
2018-08-09T16:35:34.798Z,100527.24
2018-08-09T16:38:02.880Z,100522.16
2018-08-09T16:40:30.936Z,100533.27
2018-08-09T16:42:59.005Z,100534.55
2018-08-09T16:45:27.172Z,100543.95
2018-08-09T16:47:55.289Z,100549.69
2018-08-09T16:50:24.929Z,100547.02
2018-08-09T16:52:53.136Z,100534.03
2018-08-09T16:55:22.289Z,100536.27
2018-08-09T16:57:50.387Z,100526.29
2018-08-09T17:00:20.720Z,100524.72
2018-08-09T17:02:49.053Z,100507.09
2018-08-09T17:05:19.925Z,100493.30
2018-08-09T17:07:48.089Z,100477.73
2018-08-09T17:10:20.576Z,100471.41
2018-08-09T17:12:48.699Z,100485.39
2018-08-09T17:15:19.031Z,100492.69
2018-08-09T17:17:47.115Z,100547.16
2018-08-09T17:20:17.952Z,100691.77
2018-08-09T17:22:46.057Z,100648.83
2018-08-09T17:25:14.693Z,100703.56
2018-08-09T17:27:44.144Z,100686.88
2018-08-09T17:30:13.479Z,100653.94
2018-08-09T17:32:41.860Z,100635.36
2018-08-09T17:35:10.661Z,100622.50
2018-08-09T17:37:39.108Z,100613.02
2018-08-09T17:40:10.085Z,100595.19
2018-08-09T17:42:38.117Z,100611.34
2018-08-09T17:45:06.510Z,100604.83
2018-08-09T17:47:34.544Z,100600.38
2018-08-09T17:50:02.585Z,100626.56
2018-08-09T17:52:30.760Z,100652.58
2018-08-09T17:54:58.808Z,100655.77
2018-08-09T17:57:26.901Z,100657.80
2018-08-09T17:59:54.950Z,100661.23
2018-08-09T18:02:22.988Z,100646.70
2018-08-09T18:04:51.082Z,100660.67
2018-08-09T18:07:19.087Z,100669.26
2018-08-09T18:09:47.148Z,100675.91
2018-08-09T18:12:15.652Z,100691.25
2018-08-09T18:14:45.004Z,100700.02
2018-08-09T18:17:13.369Z,100706.73
2018-08-09T18:19:41.859Z,100700.16
2018-08-09T18:22:10.641Z,100694.46
2018-08-09T18:24:38.732Z,100681.37
2018-08-09T18:27:07.180Z,100668.39
2018-08-09T18:29:35.296Z,100660.66
2018-08-09T18:32:03.352Z,100660.81
2018-08-09T18:34:31.415Z,100650.78
2018-08-09T18:36:59.540Z,100626.56
2018-08-09T18:39:27.624Z,100630.30
2018-08-09T18:41:55.672Z,100624.45
2018-08-09T18:44:23.738Z,100616.91
2018-08-09T18:46:51.821Z,100606.38
2018-08-09T18:49:19.881Z,100599.45
2018-08-09T18:51:47.971Z,100600.14
2018-08-09T18:54:16.044Z,100618.53
2018-08-09T18:56:44.115Z,100599.44
2018-08-09T18:59:12.180Z,100605.34
2018-08-09T19:01:40.248Z,100612.53
2018-08-09T19:04:08.511Z,100608.84
2018-08-09T19:06:36.568Z,100610.16
2018-08-09T19:09:07.359Z,100612.06
2018-08-09T19:11:35.424Z,100624.86
2018-08-09T19:14:03.479Z,100633.73
2018-08-09T19:16:31.552Z,100639.41
2018-08-09T19:18:59.646Z,100633.91
2018-08-09T19:21:28.012Z,100638.77
2018-08-09T19:23:56.072Z,100631.34
2018-08-09T19:26:24.142Z,100628.08
2018-08-09T19:28:52.192Z,100619.27
2018-08-09T19:31:20.292Z,100621.42
2018-08-09T19:33:48.369Z,100618.52
2018-08-09T19:36:16.447Z,100613.64
2018-08-09T19:38:44.663Z,100625.22
2018-08-09T19:41:12.637Z,100621.66
2018-08-09T19:43:40.688Z,100623.75
2018-08-09T19:46:08.771Z,100620.45
2018-08-09T19:48:37.080Z,100618.45
2018-08-09T19:51:05.164Z,100615.41
2018-08-09T19:53:33.217Z,100619.03
2018-08-09T19:56:01.271Z,100619.20
2018-08-09T19:58:29.340Z,100611.41
2018-08-09T20:00:57.424Z,100615.47
2018-08-09T20:03:25.474Z,100607.78
2018-08-09T20:05:53.533Z,100607.17
2018-08-09T20:08:21.584Z,100613.02
2018-08-09T20:10:49.642Z,100615.64
2018-08-09T20:13:17.696Z,100617.91
2018-08-09T20:15:45.760Z,100605.30
2018-08-09T20:18:13.800Z,100609.82
2018-08-09T20:20:41.856Z,100614.28
2018-08-09T20:23:09.917Z,100622.41
2018-08-09T20:25:37.976Z,100635.58
2018-08-09T20:28:06.232Z,100630.77
2018-08-09T20:30:34.325Z,100646.94
2018-08-09T20:33:02.404Z,100647.97
2018-08-09T20:35:30.447Z,100644.56
2018-08-09T20:37:58.501Z,100646.20
2018-08-09T20:40:26.576Z,100655.48
2018-08-09T20:42:55.043Z,100658.39
2018-08-09T20:45:23.987Z,100661.48
2018-08-09T20:47:52.118Z,100656.71
2018-08-09T20:50:21.911Z,100662.99
2018-08-09T20:52:50.484Z,100657.19
2018-08-09T20:55:18.769Z,100659.85
2018-08-09T20:57:47.540Z,100653.07
2018-08-09T21:00:18.302Z,100658.14
2018-08-09T21:02:47.576Z,100661.56
2018-08-09T21:05:30.916Z,100653.32
2018-08-09T21:07:58.991Z,100662.16
2018-08-09T21:10:27.352Z,100673.43
2018-08-09T21:12:55.640Z,100671.63
2018-08-09T21:15:23.774Z,100667.16
2018-08-09T21:17:51.788Z,100662.97
2018-08-09T21:20:19.860Z,100669.84
2018-08-09T21:22:48.834Z,100669.03
2018-08-09T21:25:16.929Z,100667.23
2018-08-09T21:27:45.385Z,100666.64
2018-08-09T21:30:15.597Z,100648.81
2018-08-09T21:32:44.091Z,100664.59
2018-08-09T21:35:12.218Z,100659.22
2018-08-09T21:37:41.333Z,100658.79
2018-08-09T21:40:10.707Z,100665.83
2018-08-09T21:42:38.780Z,100665.62
2018-08-09T21:45:11.336Z,100661.40
2018-08-09T21:47:39.599Z,100663.23
2018-08-09T21:50:11.119Z,100657.04
2018-08-09T21:52:39.400Z,100654.05
2018-08-09T21:55:07.868Z,100659.34
2018-08-09T21:57:36.154Z,100663.78
2018-08-09T22:00:06.167Z,100655.17
2018-08-09T22:02:34.239Z,100674.42
2018-08-09T22:06:05.112Z,100672.45
2018-08-09T22:08:38.511Z,100669.05
2018-08-09T22:11:12.551Z,100673.52
2018-08-09T22:13:45.977Z,100672.49
2018-08-09T22:16:19.341Z,100679.14
2018-08-09T22:18:52.676Z,100687.20
2018-08-09T22:22:26.110Z,100685.41
2018-08-09T22:24:54.147Z,100688.68
2018-08-09T22:27:22.205Z,100693.50
2018-08-09T22:29:50.273Z,100690.09
2018-08-09T22:32:18.360Z,100694.73
2018-08-09T22:34:46.456Z,100704.16
2018-08-09T22:37:14.576Z,100706.97
2018-08-09T22:39:42.636Z,100698.74
2018-08-09T22:42:10.748Z,100714.82
2018-08-09T22:44:38.802Z,100708.80
2018-08-09T22:47:06.895Z,100700.39
2018-08-09T22:49:34.976Z,100709.22
2018-08-09T22:52:03.058Z,100705.03
2018-08-09T22:54:31.244Z,100708.23
2018-08-09T22:56:59.316Z,100719.28
2018-08-09T22:59:27.472Z,100729.38
2018-08-09T23:01:55.552Z,100732.19
2018-08-09T23:04:23.646Z,100729.41
2018-08-09T23:06:51.711Z,100733.44
2018-08-09T23:09:19.805Z,100741.10
2018-08-09T23:11:47.897Z,100736.25
2018-08-09T23:14:15.984Z,100743.50
2018-08-09T23:16:44.068Z,100733.89
2018-08-09T23:19:12.156Z,100744.15
2018-08-09T23:21:40.224Z,100739.13
2018-08-09T23:24:08.316Z,100742.35
2018-08-09T23:26:36.399Z,100741.96
2018-08-09T23:29:04.517Z,100738.52
2018-08-09T23:31:32.624Z,100758.63
2018-08-09T23:34:00.710Z,100756.83
2018-08-09T23:36:28.784Z,100741.95
2018-08-09T23:38:56.884Z,100753.44
2018-08-09T23:41:24.956Z,100754.04
2018-08-09T23:43:53.032Z,100762.89
2018-08-09T23:46:21.129Z,100752.84
2018-08-09T23:48:49.224Z,100756.66
2018-08-09T23:51:17.320Z,100762.10
2018-08-09T23:53:45.415Z,100750.88
2018-08-09T23:56:13.568Z,100770.16
2018-08-09T23:58:41.648Z,100764.53
